sensor_id;sensor_type;location;lat;lon;timestamp;temperature;humidity
23475;DHT22;11910;52.086;21.066;2022-07-29T00:00:13;14.70;96.40
23475;DHT22;11910;52.086;21.066;2022-07-29T00:02:39;14.70;97.40
23475;DHT22;11910;52.086;21.066;2022-07-29T00:05:05;14.60;97.00
23475;DHT22;11910;52.086;21.066;2022-07-29T00:07:31;14.40;95.50
23475;DHT22;11910;52.086;21.066;2022-07-29T00:09:57;14.20;96.40
23475;DHT22;11910;52.086;21.066;2022-07-29T00:12:24;14.20;97.70
23475;DHT22;11910;52.086;21.066;2022-07-29T00:14:51;14.20;99.40
23475;DHT22;11910;52.086;21.066;2022-07-29T00:17:16;14.20;99.90
23475;DHT22;11910;52.086;21.066;2022-07-29T00:19:42;14.30;99.90
23475;DHT22;11910;52.086;21.066;2022-07-29T00:22:08;14.40;99.90
23475;DHT22;11910;52.086;21.066;2022-07-29T00:24:34;14.40;98.00
23475;DHT22;11910;52.086;21.066;2022-07-29T00:26:59;14.30;98.00
23475;DHT22;11910;52.086;21.066;2022-07-29T00:29:25;14.20;98.10
23475;DHT22;11910;52.086;21.066;2022-07-29T00:31:50;14.20;99.20
23475;DHT22;11910;52.086;21.066;2022-07-29T00:34:16;14.10;99.30
23475;DHT22;11910;52.086;21.066;2022-07-29T00:37:01;14.20;99.90
23475;DHT22;11910;52.086;21.066;2022-07-29T00:39:26;14.20;98.80
23475;DHT22;11910;52.086;21.066;2022-07-29T00:41:52;14.10;96.80
23475;DHT22;11910;52.086;21.066;2022-07-29T00:44:18;14.10;98.00
23475;DHT22;11910;52.086;21.066;2022-07-29T00:46:43;14.00;97.80
23475;DHT22;11910;52.086;21.066;2022-07-29T00:49:09;14.00;98.30
23475;DHT22;11910;52.086;21.066;2022-07-29T00:51:36;14.00;99.30
23475;DHT22;11910;52.086;21.066;2022-07-29T00:54:03;14.00;97.90
23475;DHT22;11910;52.086;21.066;2022-07-29T00:56:33;13.90;96.90
23475;DHT22;11910;52.086;21.066;2022-07-29T00:58:59;13.90;97.70
23475;DHT22;11910;52.086;21.066;2022-07-29T01:01:26;14.00;99.50
23475;DHT22;11910;52.086;21.066;2022-07-29T01:03:52;14.20;99.70
23475;DHT22;11910;52.086;21.066;2022-07-29T01:06:18;14.10;98.80
23475;DHT22;11910;52.086;21.066;2022-07-29T01:08:47;14.20;98.90
23475;DHT22;11910;52.086;21.066;2022-07-29T01:11:16;14.30;99.00
23475;DHT22;11910;52.086;21.066;2022-07-29T01:13:43;14.20;97.30
23475;DHT22;11910;52.086;21.066;2022-07-29T01:16:25;14.10;96.80
23475;DHT22;11910;52.086;21.066;2022-07-29T01:19:00;14.00;98.30
23475;DHT22;11910;52.086;21.066;2022-07-29T01:21:53;14.00;98.20
23475;DHT22;11910;52.086;21.066;2022-07-29T01:24:34;13.90;95.80
23475;DHT22;11910;52.086;21.066;2022-07-29T01:29:56;14.00;98.90
23475;DHT22;11910;52.086;21.066;2022-07-29T01:32:26;14.10;99.90
23475;DHT22;11910;52.086;21.066;2022-07-29T01:35:03;14.20;98.70
23475;DHT22;11910;52.086;21.066;2022-07-29T01:37:38;14.10;96.90
23475;DHT22;11910;52.086;21.066;2022-07-29T01:40:08;14.00;97.80
23475;DHT22;11910;52.086;21.066;2022-07-29T01:42:42;14.00;99.20
23475;DHT22;11910;52.086;21.066;2022-07-29T01:45:19;14.10;99.30
23475;DHT22;11910;52.086;21.066;2022-07-29T01:48:13;14.20;99.50
23475;DHT22;11910;52.086;21.066;2022-07-29T01:50:52;14.00;97.60
23475;DHT22;11910;52.086;21.066;2022-07-29T01:53:29;13.90;97.50
23475;DHT22;11910;52.086;21.066;2022-07-29T01:55:57;13.80;99.90
23475;DHT22;11910;52.086;21.066;2022-07-29T01:58:25;13.80;99.90
23475;DHT22;11910;52.086;21.066;2022-07-29T02:00:51;13.80;97.20
23475;DHT22;11910;52.086;21.066;2022-07-29T02:03:19;13.70;97.60
23475;DHT22;11910;52.086;21.066;2022-07-29T02:05:46;13.60;98.00
23475;DHT22;11910;52.086;21.066;2022-07-29T02:08:13;13.60;98.60
23475;DHT22;11910;52.086;21.066;2022-07-29T02:10:42;13.60;99.20
23475;DHT22;11910;52.086;21.066;2022-07-29T02:13:10;13.60;96.80
23475;DHT22;11910;52.086;21.066;2022-07-29T02:15:37;13.50;96.00
23475;DHT22;11910;52.086;21.066;2022-07-29T02:18:20;13.50;97.30
23475;DHT22;11910;52.086;21.066;2022-07-29T02:20:50;13.40;98.30
23475;DHT22;11910;52.086;21.066;2022-07-29T02:23:21;13.40;97.60
23475;DHT22;11910;52.086;21.066;2022-07-29T02:25:55;13.30;97.60
23475;DHT22;11910;52.086;21.066;2022-07-29T02:28:24;13.20;96.90
23475;DHT22;11910;52.086;21.066;2022-07-29T02:30:52;13.20;96.90
23475;DHT22;11910;52.086;21.066;2022-07-29T02:33:19;13.20;97.80
23475;DHT22;11910;52.086;21.066;2022-07-29T02:35:47;13.20;98.50
23475;DHT22;11910;52.086;21.066;2022-07-29T02:38:15;13.30;99.00
23475;DHT22;11910;52.086;21.066;2022-07-29T02:41:03;13.50;99.30
23475;DHT22;11910;52.086;21.066;2022-07-29T02:43:32;13.60;99.00
23475;DHT22;11910;52.086;21.066;2022-07-29T02:45:59;13.60;98.50
23475;DHT22;11910;52.086;21.066;2022-07-29T02:48:36;13.60;97.00
23475;DHT22;11910;52.086;21.066;2022-07-29T02:51:10;13.50;95.50
23475;DHT22;11910;52.086;21.066;2022-07-29T02:53:38;13.30;95.40
23475;DHT22;11910;52.086;21.066;2022-07-29T02:56:10;13.30;96.70
23475;DHT22;11910;52.086;21.066;2022-07-29T02:58:40;13.30;98.10
23475;DHT22;11910;52.086;21.066;2022-07-29T03:01:14;13.40;98.70
23475;DHT22;11910;52.086;21.066;2022-07-29T03:03:42;13.40;98.60
23475;DHT22;11910;52.086;21.066;2022-07-29T03:06:10;13.50;98.60
23475;DHT22;11910;52.086;21.066;2022-07-29T03:08:37;13.40;98.00
23475;DHT22;11910;52.086;21.066;2022-07-29T03:11:04;13.30;97.90
23475;DHT22;11910;52.086;21.066;2022-07-29T03:13:30;13.30;98.60
23475;DHT22;11910;52.086;21.066;2022-07-29T03:15:57;13.30;99.70
23475;DHT22;11910;52.086;21.066;2022-07-29T03:18:23;13.30;99.20
23475;DHT22;11910;52.086;21.066;2022-07-29T03:20:49;13.30;99.20
23475;DHT22;11910;52.086;21.066;2022-07-29T03:23:19;13.30;99.20
23475;DHT22;11910;52.086;21.066;2022-07-29T03:25:46;13.30;99.80
23475;DHT22;11910;52.086;21.066;2022-07-29T03:28:12;13.30;99.90
23475;DHT22;11910;52.086;21.066;2022-07-29T03:30:38;13.30;99.00
23475;DHT22;11910;52.086;21.066;2022-07-29T03:33:04;13.30;98.60
23475;DHT22;11910;52.086;21.066;2022-07-29T03:35:29;13.20;98.10
23475;DHT22;11910;52.086;21.066;2022-07-29T03:37:57;13.20;98.60
23475;DHT22;11910;52.086;21.066;2022-07-29T03:40:27;13.20;99.80
23475;DHT22;11910;52.086;21.066;2022-07-29T03:42:56;13.20;99.90
23475;DHT22;11910;52.086;21.066;2022-07-29T03:45:24;13.20;99.90
23475;DHT22;11910;52.086;21.066;2022-07-29T03:47:55;13.20;99.90
23475;DHT22;11910;52.086;21.066;2022-07-29T03:50:22;13.40;99.90
23475;DHT22;11910;52.086;21.066;2022-07-29T03:52:49;13.50;99.90
23475;DHT22;11910;52.086;21.066;2022-07-29T03:55:15;13.60;99.90
23475;DHT22;11910;52.086;21.066;2022-07-29T03:57:42;13.90;99.90
23475;DHT22;11910;52.086;21.066;2022-07-29T04:00:08;13.90;99.90
23475;DHT22;11910;52.086;21.066;2022-07-29T04:02:36;13.90;99.90
23475;DHT22;11910;52.086;21.066;2022-07-29T04:05:02;14.00;99.90
23475;DHT22;11910;52.086;21.066;2022-07-29T04:07:27;14.10;99.90
23475;DHT22;11910;52.086;21.066;2022-07-29T04:09:54;14.10;99.90
23475;DHT22;11910;52.086;21.066;2022-07-29T04:12:20;14.30;99.90
23475;DHT22;11910;52.086;21.066;2022-07-29T04:14:46;14.40;99.90
23475;DHT22;11910;52.086;21.066;2022-07-29T04:17:12;14.60;99.90
23475;DHT22;11910;52.086;21.066;2022-07-29T04:19:38;14.70;99.90
23475;DHT22;11910;52.086;21.066;2022-07-29T04:22:03;14.80;99.90
23475;DHT22;11910;52.086;21.066;2022-07-29T04:24:29;15.00;99.90
23475;DHT22;11910;52.086;21.066;2022-07-29T04:26:55;15.10;99.90
23475;DHT22;11910;52.086;21.066;2022-07-29T04:29:21;15.20;99.90
23475;DHT22;11910;52.086;21.066;2022-07-29T04:31:47;15.40;99.90
23475;DHT22;11910;52.086;21.066;2022-07-29T04:34:13;15.50;99.90
23475;DHT22;11910;52.086;21.066;2022-07-29T04:36:38;15.60;99.90
23475;DHT22;11910;52.086;21.066;2022-07-29T04:39:04;15.80;99.90
23475;DHT22;11910;52.086;21.066;2022-07-29T04:41:30;15.90;99.90
23475;DHT22;11910;52.086;21.066;2022-07-29T04:43:56;16.10;99.90
23475;DHT22;11910;52.086;21.066;2022-07-29T04:46:22;16.20;99.90
23475;DHT22;11910;52.086;21.066;2022-07-29T04:48:48;16.30;99.90
23475;DHT22;11910;52.086;21.066;2022-07-29T04:51:15;16.50;99.90
23475;DHT22;11910;52.086;21.066;2022-07-29T04:53:41;16.60;99.90
23475;DHT22;11910;52.086;21.066;2022-07-29T04:56:06;16.60;99.90
23475;DHT22;11910;52.086;21.066;2022-07-29T04:58:34;16.70;99.90
23475;DHT22;11910;52.086;21.066;2022-07-29T05:01:00;16.90;99.90
23475;DHT22;11910;52.086;21.066;2022-07-29T05:03:26;16.90;99.90
23475;DHT22;11910;52.086;21.066;2022-07-29T05:05:52;17.00;99.90
23475;DHT22;11910;52.086;21.066;2022-07-29T05:08:17;17.10;99.90
23475;DHT22;11910;52.086;21.066;2022-07-29T05:10:43;17.10;99.90
23475;DHT22;11910;52.086;21.066;2022-07-29T05:13:12;17.20;99.90
23475;DHT22;11910;52.086;21.066;2022-07-29T05:15:37;17.30;99.90
23475;DHT22;11910;52.086;21.066;2022-07-29T05:18:04;17.30;99.90
23475;DHT22;11910;52.086;21.066;2022-07-29T05:20:30;17.30;99.90
23475;DHT22;11910;52.086;21.066;2022-07-29T05:23:00;17.50;99.90
23475;DHT22;11910;52.086;21.066;2022-07-29T05:25:27;17.50;99.90
23475;DHT22;11910;52.086;21.066;2022-07-29T05:27:53;17.60;99.90
23475;DHT22;11910;52.086;21.066;2022-07-29T05:30:20;17.60;99.90
23475;DHT22;11910;52.086;21.066;2022-07-29T05:32:45;17.70;99.90
23475;DHT22;11910;52.086;21.066;2022-07-29T05:35:11;17.80;99.90
23475;DHT22;11910;52.086;21.066;2022-07-29T05:37:37;17.90;99.90
23475;DHT22;11910;52.086;21.066;2022-07-29T05:40:03;18.00;99.90
23475;DHT22;11910;52.086;21.066;2022-07-29T05:42:29;18.00;99.90
23475;DHT22;11910;52.086;21.066;2022-07-29T05:44:55;18.10;99.90
23475;DHT22;11910;52.086;21.066;2022-07-29T05:47:21;18.20;99.90
23475;DHT22;11910;52.086;21.066;2022-07-29T05:49:47;18.20;99.90
23475;DHT22;11910;52.086;21.066;2022-07-29T05:52:13;18.30;99.90
23475;DHT22;11910;52.086;21.066;2022-07-29T05:54:39;18.40;99.90
23475;DHT22;11910;52.086;21.066;2022-07-29T05:57:05;18.50;99.90
23475;DHT22;11910;52.086;21.066;2022-07-29T05:59:37;18.60;99.90
23475;DHT22;11910;52.086;21.066;2022-07-29T06:02:03;18.70;99.90
23475;DHT22;11910;52.086;21.066;2022-07-29T06:04:31;18.70;99.90
23475;DHT22;11910;52.086;21.066;2022-07-29T06:06:56;18.80;99.90
23475;DHT22;11910;52.086;21.066;2022-07-29T06:09:22;18.80;99.90
23475;DHT22;11910;52.086;21.066;2022-07-29T06:11:48;18.90;99.90
23475;DHT22;11910;52.086;21.066;2022-07-29T06:14:14;19.00;99.90
23475;DHT22;11910;52.086;21.066;2022-07-29T06:16:40;19.00;99.90
23475;DHT22;11910;52.086;21.066;2022-07-29T06:19:05;19.10;99.90
23475;DHT22;11910;52.086;21.066;2022-07-29T06:21:31;19.20;99.90
23475;DHT22;11910;52.086;21.066;2022-07-29T06:23:57;19.30;99.90
23475;DHT22;11910;52.086;21.066;2022-07-29T06:26:23;19.30;99.90
23475;DHT22;11910;52.086;21.066;2022-07-29T06:28:49;19.40;99.90
23475;DHT22;11910;52.086;21.066;2022-07-29T06:31:14;19.50;99.90
23475;DHT22;11910;52.086;21.066;2022-07-29T06:33:40;19.60;99.90
23475;DHT22;11910;52.086;21.066;2022-07-29T06:36:06;19.70;99.90
23475;DHT22;11910;52.086;21.066;2022-07-29T06:38:33;19.80;99.90
23475;DHT22;11910;52.086;21.066;2022-07-29T06:40:59;20.00;99.90
23475;DHT22;11910;52.086;21.066;2022-07-29T06:43:36;20.00;99.90
23475;DHT22;11910;52.086;21.066;2022-07-29T06:46:08;20.10;99.90
23475;DHT22;11910;52.086;21.066;2022-07-29T06:48:35;20.10;99.90
23475;DHT22;11910;52.086;21.066;2022-07-29T06:51:02;20.20;99.90
23475;DHT22;11910;52.086;21.066;2022-07-29T06:53:28;20.30;99.90
23475;DHT22;11910;52.086;21.066;2022-07-29T06:55:55;20.40;99.90
23475;DHT22;11910;52.086;21.066;2022-07-29T06:58:20;20.50;99.90
23475;DHT22;11910;52.086;21.066;2022-07-29T07:00:47;20.50;99.90
23475;DHT22;11910;52.086;21.066;2022-07-29T07:03:14;20.60;99.90
23475;DHT22;11910;52.086;21.066;2022-07-29T07:05:40;20.70;99.90
23475;DHT22;11910;52.086;21.066;2022-07-29T07:08:06;20.80;99.90
23475;DHT22;11910;52.086;21.066;2022-07-29T07:10:34;20.90;99.90
23475;DHT22;11910;52.086;21.066;2022-07-29T07:13:00;20.90;99.90
23475;DHT22;11910;52.086;21.066;2022-07-29T07:15:27;21.00;99.90
23475;DHT22;11910;52.086;21.066;2022-07-29T07:17:53;21.10;99.90
23475;DHT22;11910;52.086;21.066;2022-07-29T07:20:19;21.10;99.90
23475;DHT22;11910;52.086;21.066;2022-07-29T07:22:45;21.30;99.90
23475;DHT22;11910;52.086;21.066;2022-07-29T07:25:11;21.30;99.90
23475;DHT22;11910;52.086;21.066;2022-07-29T07:27:38;21.40;99.00
23475;DHT22;11910;52.086;21.066;2022-07-29T07:30:05;21.40;97.80
23475;DHT22;11910;52.086;21.066;2022-07-29T07:32:35;21.40;97.30
23475;DHT22;11910;52.086;21.066;2022-07-29T07:35:02;21.40;98.40
23475;DHT22;11910;52.086;21.066;2022-07-29T07:37:28;21.50;98.60
23475;DHT22;11910;52.086;21.066;2022-07-29T07:39:54;21.60;98.60
23475;DHT22;11910;52.086;21.066;2022-07-29T07:42:20;21.70;98.70
23475;DHT22;11910;52.086;21.066;2022-07-29T07:44:46;21.70;97.60
23475;DHT22;11910;52.086;21.066;2022-07-29T07:47:14;21.80;97.40
23475;DHT22;11910;52.086;21.066;2022-07-29T07:49:40;21.90;97.60
23475;DHT22;11910;52.086;21.066;2022-07-29T07:52:06;22.10;96.10
23475;DHT22;11910;52.086;21.066;2022-07-29T07:54:31;22.10;97.20
23475;DHT22;11910;52.086;21.066;2022-07-29T07:56:57;22.20;96.40
23475;DHT22;11910;52.086;21.066;2022-07-29T07:59:23;22.40;95.80
23475;DHT22;11910;52.086;21.066;2022-07-29T08:01:49;22.70;96.40
23475;DHT22;11910;52.086;21.066;2022-07-29T08:04:15;22.60;96.40
23475;DHT22;11910;52.086;21.066;2022-07-29T08:06:41;22.70;94.80
23475;DHT22;11910;52.086;21.066;2022-07-29T08:09:07;22.70;95.90
23475;DHT22;11910;52.086;21.066;2022-07-29T08:11:33;22.80;95.80
23475;DHT22;11910;52.086;21.066;2022-07-29T08:13:59;22.90;94.10
23475;DHT22;11910;52.086;21.066;2022-07-29T08:16:27;23.00;94.90
23475;DHT22;11910;52.086;21.066;2022-07-29T08:18:52;23.10;94.60
23475;DHT22;11910;52.086;21.066;2022-07-29T08:21:23;23.20;94.70
23475;DHT22;11910;52.086;21.066;2022-07-29T08:23:50;23.50;92.50
23475;DHT22;11910;52.086;21.066;2022-07-29T08:26:19;23.70;93.00
23475;DHT22;11910;52.086;21.066;2022-07-29T08:28:46;23.70;92.40
23475;DHT22;11910;52.086;21.066;2022-07-29T08:31:14;23.80;92.70
23475;DHT22;11910;52.086;21.066;2022-07-29T08:33:39;23.90;91.10
23475;DHT22;11910;52.086;21.066;2022-07-29T08:36:05;23.90;90.80
23475;DHT22;11910;52.086;21.066;2022-07-29T08:38:32;24.00;91.70
23475;DHT22;11910;52.086;21.066;2022-07-29T08:41:00;24.00;90.60
23475;DHT22;11910;52.086;21.066;2022-07-29T08:43:25;24.00;90.00
23475;DHT22;11910;52.086;21.066;2022-07-29T08:45:51;24.00;85.00
23475;DHT22;11910;52.086;21.066;2022-07-29T08:48:20;24.00;84.10
23475;DHT22;11910;52.086;21.066;2022-07-29T08:50:47;24.00;84.70
23475;DHT22;11910;52.086;21.066;2022-07-29T08:53:15;24.10;86.50
23475;DHT22;11910;52.086;21.066;2022-07-29T08:55:45;24.30;86.10
23475;DHT22;11910;52.086;21.066;2022-07-29T08:58:13;25.00;81.10
23475;DHT22;11910;52.086;21.066;2022-07-29T09:00:46;25.60;79.30
23475;DHT22;11910;52.086;21.066;2022-07-29T09:03:19;27.90;75.40
23475;DHT22;11910;52.086;21.066;2022-07-29T09:05:46;30.50;67.70
23475;DHT22;11910;52.086;21.066;2022-07-29T09:08:14;32.00;59.40
23475;DHT22;11910;52.086;21.066;2022-07-29T09:10:40;33.70;56.70
23475;DHT22;11910;52.086;21.066;2022-07-29T09:13:05;35.00;53.80
23475;DHT22;11910;52.086;21.066;2022-07-29T09:15:31;34.30;52.50
23475;DHT22;11910;52.086;21.066;2022-07-29T09:17:57;34.90;50.70
23475;DHT22;11910;52.086;21.066;2022-07-29T09:20:25;35.40;47.90
23475;DHT22;11910;52.086;21.066;2022-07-29T09:22:52;34.40;48.50
23475;DHT22;11910;52.086;21.066;2022-07-29T09:25:36;32.90;51.20
23475;DHT22;11910;52.086;21.066;2022-07-29T09:28:10;34.80;49.30
23475;DHT22;11910;52.086;21.066;2022-07-29T09:30:53;34.90;47.10
23475;DHT22;11910;52.086;21.066;2022-07-29T09:33:21;34.20;48.20
23475;DHT22;11910;52.086;21.066;2022-07-29T09:36:05;34.30;47.10
23475;DHT22;11910;52.086;21.066;2022-07-29T09:38:32;35.30;48.10
23475;DHT22;11910;52.086;21.066;2022-07-29T09:40:59;36.10;45.90
23475;DHT22;11910;52.086;21.066;2022-07-29T09:43:25;36.80;45.80
23475;DHT22;11910;52.086;21.066;2022-07-29T09:45:51;37.40;45.40
23475;DHT22;11910;52.086;21.066;2022-07-29T09:50:45;36.10;44.50
23475;DHT22;11910;52.086;21.066;2022-07-29T09:53:15;36.10;43.80
23475;DHT22;11910;52.086;21.066;2022-07-29T09:55:55;35.90;45.50
23475;DHT22;11910;52.086;21.066;2022-07-29T09:58:21;34.40;45.80
23475;DHT22;11910;52.086;21.066;2022-07-29T10:00:49;34.00;47.20
23475;DHT22;11910;52.086;21.066;2022-07-29T10:03:15;33.80;47.50
23475;DHT22;11910;52.086;21.066;2022-07-29T10:05:42;33.20;47.50
23475;DHT22;11910;52.086;21.066;2022-07-29T10:08:08;32.20;48.90
23475;DHT22;11910;52.086;21.066;2022-07-29T10:10:37;31.50;50.20
23475;DHT22;11910;52.086;21.066;2022-07-29T10:13:08;31.00;51.10
23475;DHT22;11910;52.086;21.066;2022-07-29T10:15:37;30.30;52.50
23475;DHT22;11910;52.086;21.066;2022-07-29T10:18:05;30.00;54.40
23475;DHT22;11910;52.086;21.066;2022-07-29T10:20:31;29.60;54.40
23475;DHT22;11910;52.086;21.066;2022-07-29T10:22:57;29.20;54.60
23475;DHT22;11910;52.086;21.066;2022-07-29T10:25:24;28.80;55.60
23475;DHT22;11910;52.086;21.066;2022-07-29T10:27:51;28.60;55.70
23475;DHT22;11910;52.086;21.066;2022-07-29T10:30:18;28.30;56.30
23475;DHT22;11910;52.086;21.066;2022-07-29T10:33:10;28.00;57.10
23475;DHT22;11910;52.086;21.066;2022-07-29T10:38:52;27.60;58.40
23475;DHT22;11910;52.086;21.066;2022-07-29T10:44:50;28.10;58.60
23475;DHT22;11910;52.086;21.066;2022-07-29T10:47:23;28.40;58.00
23475;DHT22;11910;52.086;21.066;2022-07-29T10:50:02;28.60;56.20
23475;DHT22;11910;52.086;21.066;2022-07-29T10:55:42;28.60;53.90
23475;DHT22;11910;52.086;21.066;2022-07-29T10:58:19;28.70;55.40
23475;DHT22;11910;52.086;21.066;2022-07-29T11:00:47;28.50;53.80
23475;DHT22;11910;52.086;21.066;2022-07-29T11:06:11;28.00;55.40
23475;DHT22;11910;52.086;21.066;2022-07-29T11:08:36;28.10;55.60
23475;DHT22;11910;52.086;21.066;2022-07-29T11:13:51;27.60;56.20
23475;DHT22;11910;52.086;21.066;2022-07-29T11:16:19;27.50;57.20
23475;DHT22;11910;52.086;21.066;2022-07-29T11:21:40;27.30;57.70
23475;DHT22;11910;52.086;21.066;2022-07-29T11:24:20;27.10;57.50
23475;DHT22;11910;52.086;21.066;2022-07-29T11:27:07;27.00;56.70
23475;DHT22;11910;52.086;21.066;2022-07-29T11:29:37;26.90;57.40
23475;DHT22;11910;52.086;21.066;2022-07-29T11:32:14;26.80;57.20
23475;DHT22;11910;52.086;21.066;2022-07-29T11:34:41;26.70;59.20
23475;DHT22;11910;52.086;21.066;2022-07-29T11:44:58;26.70;59.20
23475;DHT22;11910;52.086;21.066;2022-07-29T11:47:28;26.80;57.10
23475;DHT22;11910;52.086;21.066;2022-07-29T11:49:56;27.00;57.50
23475;DHT22;11910;52.086;21.066;2022-07-29T11:52:23;26.90;57.70
23475;DHT22;11910;52.086;21.066;2022-07-29T11:54:50;27.00;59.00
23475;DHT22;11910;52.086;21.066;2022-07-29T11:57:17;27.20;57.80
23475;DHT22;11910;52.086;21.066;2022-07-29T11:59:46;27.40;58.90
23475;DHT22;11910;52.086;21.066;2022-07-29T12:02:13;27.40;56.40
23475;DHT22;11910;52.086;21.066;2022-07-29T12:05:09;27.50;56.70
23475;DHT22;11910;52.086;21.066;2022-07-29T12:07:35;27.50;55.40
23475;DHT22;11910;52.086;21.066;2022-07-29T12:10:03;27.50;57.00
23475;DHT22;11910;52.086;21.066;2022-07-29T12:12:29;27.60;58.10
23475;DHT22;11910;52.086;21.066;2022-07-29T12:14:55;27.50;56.70
23475;DHT22;11910;52.086;21.066;2022-07-29T12:17:30;27.40;57.70
23475;DHT22;11910;52.086;21.066;2022-07-29T12:19:57;27.30;56.50
23475;DHT22;11910;52.086;21.066;2022-07-29T12:24:53;27.00;55.70
23475;DHT22;11910;52.086;21.066;2022-07-29T12:27:19;26.90;57.70
23475;DHT22;11910;52.086;21.066;2022-07-29T12:29:55;26.90;56.10
23475;DHT22;11910;52.086;21.066;2022-07-29T12:32:22;27.00;58.40
23475;DHT22;11910;52.086;21.066;2022-07-29T12:34:47;27.20;59.50
23475;DHT22;11910;52.086;21.066;2022-07-29T12:37:13;27.40;58.90
23475;DHT22;11910;52.086;21.066;2022-07-29T12:39:39;27.50;57.50
23475;DHT22;11910;52.086;21.066;2022-07-29T12:42:13;27.60;56.50
23475;DHT22;11910;52.086;21.066;2022-07-29T12:44:49;27.60;56.20
23475;DHT22;11910;52.086;21.066;2022-07-29T12:47:15;27.70;57.60
23475;DHT22;11910;52.086;21.066;2022-07-29T12:49:41;27.80;56.00
23475;DHT22;11910;52.086;21.066;2022-07-29T12:52:31;27.80;54.80
23475;DHT22;11910;52.086;21.066;2022-07-29T12:54:57;27.90;54.50
23475;DHT22;11910;52.086;21.066;2022-07-29T12:57:24;27.90;54.60
23475;DHT22;11910;52.086;21.066;2022-07-29T13:00:11;27.90;53.20
23475;DHT22;11910;52.086;21.066;2022-07-29T13:02:40;27.80;52.80
23475;DHT22;11910;52.086;21.066;2022-07-29T13:05:07;27.70;55.90
23475;DHT22;11910;52.086;21.066;2022-07-29T13:07:36;27.70;56.20
23475;DHT22;11910;52.086;21.066;2022-07-29T13:15:32;27.70;55.20
23475;DHT22;11910;52.086;21.066;2022-07-29T13:17:58;27.70;55.30
23475;DHT22;11910;52.086;21.066;2022-07-29T13:20:26;27.70;53.40
23475;DHT22;11910;52.086;21.066;2022-07-29T13:22:55;27.80;53.60
23475;DHT22;11910;52.086;21.066;2022-07-29T13:25:29;27.70;51.90
23475;DHT22;11910;52.086;21.066;2022-07-29T13:27:55;27.60;52.60
23475;DHT22;11910;52.086;21.066;2022-07-29T13:30:22;27.70;53.60
23475;DHT22;11910;52.086;21.066;2022-07-29T13:32:47;27.70;54.80
23475;DHT22;11910;52.086;21.066;2022-07-29T13:35:13;27.80;54.10
23475;DHT22;11910;52.086;21.066;2022-07-29T13:37:39;27.90;54.60
23475;DHT22;11910;52.086;21.066;2022-07-29T13:40:06;28.00;54.10
23475;DHT22;11910;52.086;21.066;2022-07-29T13:42:33;28.10;53.00
23475;DHT22;11910;52.086;21.066;2022-07-29T13:44:59;28.30;54.70
23475;DHT22;11910;52.086;21.066;2022-07-29T13:47:25;28.40;53.60
23475;DHT22;11910;52.086;21.066;2022-07-29T13:49:51;28.60;54.50
23475;DHT22;11910;52.086;21.066;2022-07-29T13:52:18;28.70;51.20
23475;DHT22;11910;52.086;21.066;2022-07-29T13:54:45;28.70;51.40
23475;DHT22;11910;52.086;21.066;2022-07-29T13:57:11;28.70;51.40
23475;DHT22;11910;52.086;21.066;2022-07-29T13:59:37;28.70;51.50
23475;DHT22;11910;52.086;21.066;2022-07-29T14:02:03;28.70;50.50
23475;DHT22;11910;52.086;21.066;2022-07-29T14:04:28;28.60;50.50
23475;DHT22;11910;52.086;21.066;2022-07-29T14:06:54;28.50;50.30
23475;DHT22;11910;52.086;21.066;2022-07-29T14:09:20;28.40;51.20
23475;DHT22;11910;52.086;21.066;2022-07-29T14:11:45;28.40;51.70
23475;DHT22;11910;52.086;21.066;2022-07-29T14:14:13;28.50;53.60
23475;DHT22;11910;52.086;21.066;2022-07-29T14:16:38;28.60;52.90
23475;DHT22;11910;52.086;21.066;2022-07-29T14:19:04;28.80;52.40
23475;DHT22;11910;52.086;21.066;2022-07-29T14:21:30;28.70;50.20
23475;DHT22;11910;52.086;21.066;2022-07-29T14:23:55;28.90;52.20
23475;DHT22;11910;52.086;21.066;2022-07-29T14:26:21;29.10;51.80
23475;DHT22;11910;52.086;21.066;2022-07-29T14:28:48;29.30;51.80
23475;DHT22;11910;52.086;21.066;2022-07-29T14:31:14;29.40;52.60
23475;DHT22;11910;52.086;21.066;2022-07-29T14:33:41;29.10;50.20
23475;DHT22;11910;52.086;21.066;2022-07-29T14:36:06;28.90;50.60
23475;DHT22;11910;52.086;21.066;2022-07-29T14:38:32;28.60;50.20
23475;DHT22;11910;52.086;21.066;2022-07-29T14:40:57;28.40;52.50
23475;DHT22;11910;52.086;21.066;2022-07-29T14:43:23;28.20;52.50
23475;DHT22;11910;52.086;21.066;2022-07-29T14:45:49;28.00;52.10
23475;DHT22;11910;52.086;21.066;2022-07-29T14:48:14;28.10;51.90
23475;DHT22;11910;52.086;21.066;2022-07-29T14:50:40;27.90;52.20
23475;DHT22;11910;52.086;21.066;2022-07-29T14:53:06;27.80;53.60
23475;DHT22;11910;52.086;21.066;2022-07-29T14:55:31;27.90;52.10
23475;DHT22;11910;52.086;21.066;2022-07-29T14:57:57;28.10;53.70
23475;DHT22;11910;52.086;21.066;2022-07-29T15:00:24;28.20;53.30
23475;DHT22;11910;52.086;21.066;2022-07-29T15:02:50;28.40;51.90
23475;DHT22;11910;52.086;21.066;2022-07-29T15:05:15;28.20;52.20
23475;DHT22;11910;52.086;21.066;2022-07-29T15:07:41;28.30;52.30
23475;DHT22;11910;52.086;21.066;2022-07-29T15:10:07;28.30;53.50
23475;DHT22;11910;52.086;21.066;2022-07-29T15:12:33;28.20;51.90
23475;DHT22;11910;52.086;21.066;2022-07-29T15:14:58;28.10;52.00
23475;DHT22;11910;52.086;21.066;2022-07-29T15:17:24;27.80;53.20
23475;DHT22;11910;52.086;21.066;2022-07-29T15:19:50;27.60;51.80
23475;DHT22;11910;52.086;21.066;2022-07-29T15:22:16;27.50;51.80
23475;DHT22;11910;52.086;21.066;2022-07-29T15:24:42;27.30;52.20
23475;DHT22;11910;52.086;21.066;2022-07-29T15:27:08;27.10;53.90
23475;DHT22;11910;52.086;21.066;2022-07-29T15:29:42;27.20;54.60
23475;DHT22;11910;52.086;21.066;2022-07-29T15:32:08;27.10;54.60
23475;DHT22;11910;52.086;21.066;2022-07-29T15:34:35;27.00;53.30
23475;DHT22;11910;52.086;21.066;2022-07-29T15:37:01;26.90;53.60
23475;DHT22;11910;52.086;21.066;2022-07-29T15:39:26;26.80;54.30
23475;DHT22;11910;52.086;21.066;2022-07-29T15:41:52;26.60;53.40
23475;DHT22;11910;52.086;21.066;2022-07-29T15:44:18;26.60;55.50
23475;DHT22;11910;52.086;21.066;2022-07-29T15:46:44;26.60;55.70
23475;DHT22;11910;52.086;21.066;2022-07-29T15:49:36;26.50;54.10
23475;DHT22;11910;52.086;21.066;2022-07-29T15:52:05;26.40;54.40
23475;DHT22;11910;52.086;21.066;2022-07-29T15:54:38;26.20;55.00
23475;DHT22;11910;52.086;21.066;2022-07-29T15:57:06;26.10;55.20
23475;DHT22;11910;52.086;21.066;2022-07-29T15:59:33;25.90;54.30